sensor_id;sensor_type;location;lat;lon;timestamp;P1;durP1;ratioP1;P2;durP2;ratioP2
79452;SDS011;68899;52.116;5.404;2024-01-06T00:00:06;10.55;;;4.78;;
79452;SDS011;68899;52.116;5.404;2024-01-06T00:02:33;10.32;;;4.45;;
79452;SDS011;68899;52.116;5.404;2024-01-06T00:05:00;8.00;;;3.72;;
79452;SDS011;68899;52.116;5.404;2024-01-06T00:07:26;9.13;;;4.07;;
79452;SDS011;68899;52.116;5.404;2024-01-06T00:09:53;8.85;;;4.25;;
79452;SDS011;68899;52.116;5.404;2024-01-06T00:12:20;9.43;;;4.28;;
79452;SDS011;68899;52.116;5.404;2024-01-06T00:14:46;8.35;;;3.85;;
79452;SDS011;68899;52.116;5.404;2024-01-06T00:17:13;8.75;;;3.95;;
79452;SDS011;68899;52.116;5.404;2024-01-06T00:19:39;7.75;;;3.95;;
79452;SDS011;68899;52.116;5.404;2024-01-06T00:22:06;7.85;;;3.95;;
79452;SDS011;68899;52.116;5.404;2024-01-06T00:24:32;8.90;;;4.38;;
79452;SDS011;68899;52.116;5.404;2024-01-06T00:26:59;9.85;;;4.13;;
79452;SDS011;68899;52.116;5.404;2024-01-06T00:29:25;9.25;;;4.25;;
79452;SDS011;68899;52.116;5.404;2024-01-06T00:31:52;7.20;;;3.88;;
79452;SDS011;68899;52.116;5.404;2024-01-06T00:34:18;9.43;;;4.30;;
79452;SDS011;68899;52.116;5.404;2024-01-06T00:36:45;7.63;;;3.38;;
79452;SDS011;68899;52.116;5.404;2024-01-06T00:39:11;7.45;;;3.70;;
79452;SDS011;68899;52.116;5.404;2024-01-06T00:41:38;5.40;;;2.38;;
79452;SDS011;68899;52.116;5.404;2024-01-06T00:44:05;6.43;;;3.55;;
79452;SDS011;68899;52.116;5.404;2024-01-06T00:46:31;7.13;;;3.15;;
79452;SDS011;68899;52.116;5.404;2024-01-06T00:48:57;7.32;;;3.70;;
79452;SDS011;68899;52.116;5.404;2024-01-06T00:51:24;6.70;;;3.10;;
79452;SDS011;68899;52.116;5.404;2024-01-06T00:53:51;8.52;;;3.75;;
79452;SDS011;68899;52.116;5.404;2024-01-06T00:56:17;9.15;;;4.13;;
79452;SDS011;68899;52.116;5.404;2024-01-06T00:58:44;9.15;;;4.10;;
79452;SDS011;68899;52.116;5.404;2024-01-06T01:01:10;9.77;;;3.75;;
79452;SDS011;68899;52.116;5.404;2024-01-06T01:03:37;9.68;;;4.05;;
79452;SDS011;68899;52.116;5.404;2024-01-06T01:06:03;10.30;;;4.43;;
79452;SDS011;68899;52.116;5.404;2024-01-06T01:08:30;8.82;;;4.93;;
79452;SDS011;68899;52.116;5.404;2024-01-06T01:10:56;9.38;;;4.55;;
79452;SDS011;68899;52.116;5.404;2024-01-06T01:13:23;10.70;;;4.72;;
79452;SDS011;68899;52.116;5.404;2024-01-06T01:15:50;7.75;;;3.80;;
79452;SDS011;68899;52.116;5.404;2024-01-06T01:18:17;9.00;;;3.88;;
79452;SDS011;68899;52.116;5.404;2024-01-06T01:20:44;8.65;;;4.10;;
79452;SDS011;68899;52.116;5.404;2024-01-06T01:23:10;8.00;;;4.82;;
79452;SDS011;68899;52.116;5.404;2024-01-06T01:25:37;7.10;;;3.78;;
79452;SDS011;68899;52.116;5.404;2024-01-06T01:28:04;7.25;;;3.92;;
79452;SDS011;68899;52.116;5.404;2024-01-06T01:30:31;6.78;;;3.55;;
79452;SDS011;68899;52.116;5.404;2024-01-06T01:32:58;8.00;;;3.88;;
79452;SDS011;68899;52.116;5.404;2024-01-06T01:35:25;8.27;;;4.05;;
79452;SDS011;68899;52.116;5.404;2024-01-06T01:37:52;8.18;;;3.60;;
79452;SDS011;68899;52.116;5.404;2024-01-06T01:40:18;9.02;;;4.57;;
79452;SDS011;68899;52.116;5.404;2024-01-06T01:42:45;9.10;;;3.95;;
79452;SDS011;68899;52.116;5.404;2024-01-06T01:45:11;10.20;;;4.43;;
79452;SDS011;68899;52.116;5.404;2024-01-06T01:47:38;9.88;;;5.43;;
79452;SDS011;68899;52.116;5.404;2024-01-06T01:50:06;8.82;;;4.45;;
79452;SDS011;68899;52.116;5.404;2024-01-06T01:52:34;8.68;;;4.15;;
79452;SDS011;68899;52.116;5.404;2024-01-06T01:55:03;11.23;;;4.57;;
79452;SDS011;68899;52.116;5.404;2024-01-06T01:57:29;9.23;;;4.40;;
79452;SDS011;68899;52.116;5.404;2024-01-06T01:59:56;8.00;;;4.38;;
79452;SDS011;68899;52.116;5.404;2024-01-06T02:02:23;9.68;;;4.55;;
79452;SDS011;68899;52.116;5.404;2024-01-06T02:04:50;10.27;;;4.85;;
79452;SDS011;68899;52.116;5.404;2024-01-06T02:07:16;8.43;;;4.80;;
79452;SDS011;68899;52.116;5.404;2024-01-06T02:09:43;9.23;;;4.10;;
79452;SDS011;68899;52.116;5.404;2024-01-06T02:12:10;8.77;;;4.18;;
79452;SDS011;68899;52.116;5.404;2024-01-06T02:14:36;8.88;;;4.20;;
79452;SDS011;68899;52.116;5.404;2024-01-06T02:17:07;9.95;;;4.63;;
79452;SDS011;68899;52.116;5.404;2024-01-06T02:19:34;9.45;;;4.13;;
79452;SDS011;68899;52.116;5.404;2024-01-06T02:22:01;9.45;;;3.83;;
79452;SDS011;68899;52.116;5.404;2024-01-06T02:24:28;7.72;;;3.35;;
79452;SDS011;68899;52.116;5.404;2024-01-06T02:26:54;10.55;;;3.45;;
79452;SDS011;68899;52.116;5.404;2024-01-06T02:29:21;7.93;;;4.22;;
79452;SDS011;68899;52.116;5.404;2024-01-06T02:31:47;6.82;;;3.75;;
79452;SDS011;68899;52.116;5.404;2024-01-06T02:34:14;6.82;;;3.88;;
79452;SDS011;68899;52.116;5.404;2024-01-06T02:36:40;7.80;;;3.95;;
79452;SDS011;68899;52.116;5.404;2024-01-06T02:39:07;6.35;;;3.58;;
79452;SDS011;68899;52.116;5.404;2024-01-06T02:41:33;7.35;;;3.90;;
79452;SDS011;68899;52.116;5.404;2024-01-06T02:44:00;7.50;;;3.10;;
79452;SDS011;68899;52.116;5.404;2024-01-06T02:46:28;6.88;;;3.92;;
79452;SDS011;68899;52.116;5.404;2024-01-06T02:48:55;8.07;;;4.05;;
79452;SDS011;68899;52.116;5.404;2024-01-06T02:51:22;8.32;;;4.32;;
79452;SDS011;68899;52.116;5.404;2024-01-06T02:53:49;10.32;;;4.93;;
79452;SDS011;68899;52.116;5.404;2024-01-06T02:56:16;11.55;;;5.70;;
79452;SDS011;68899;52.116;5.404;2024-01-06T02:58:42;8.98;;;4.72;;
79452;SDS011;68899;52.116;5.404;2024-01-06T03:01:10;10.80;;;5.43;;
79452;SDS011;68899;52.116;5.404;2024-01-06T03:03:37;10.38;;;5.75;;
79452;SDS011;68899;52.116;5.404;2024-01-06T03:06:04;11.63;;;4.68;;
79452;SDS011;68899;52.116;5.404;2024-01-06T03:08:31;10.80;;;5.15;;
79452;SDS011;68899;52.116;5.404;2024-01-06T03:10:57;10.55;;;5.13;;
79452;SDS011;68899;52.116;5.404;2024-01-06T03:13:24;9.93;;;4.85;;
79452;SDS011;68899;52.116;5.404;2024-01-06T03:15:50;10.45;;;5.30;;
79452;SDS011;68899;52.116;5.404;2024-01-06T03:18:17;10.13;;;4.82;;
79452;SDS011;68899;52.116;5.404;2024-01-06T03:20:43;11.38;;;5.03;;
79452;SDS011;68899;52.116;5.404;2024-01-06T03:23:10;10.48;;;5.45;;
79452;SDS011;68899;52.116;5.404;2024-01-06T03:25:36;9.90;;;4.90;;
79452;SDS011;68899;52.116;5.404;2024-01-06T03:28:03;7.38;;;3.97;;
79452;SDS011;68899;52.116;5.404;2024-01-06T03:30:30;8.73;;;4.10;;
79452;SDS011;68899;52.116;5.404;2024-01-06T03:32:56;8.70;;;4.38;;
79452;SDS011;68899;52.116;5.404;2024-01-06T03:35:23;7.22;;;4.30;;
79452;SDS011;68899;52.116;5.404;2024-01-06T03:37:50;7.28;;;3.60;;
79452;SDS011;68899;52.116;5.404;2024-01-06T03:40:16;8.50;;;4.45;;
79452;SDS011;68899;52.116;5.404;2024-01-06T03:42:43;8.43;;;4.45;;
79452;SDS011;68899;52.116;5.404;2024-01-06T03:45:09;7.80;;;3.75;;
79452;SDS011;68899;52.116;5.404;2024-01-06T03:47:36;8.52;;;3.92;;
79452;SDS011;68899;52.116;5.404;2024-01-06T03:50:03;6.85;;;3.67;;
79452;SDS011;68899;52.116;5.404;2024-01-06T03:52:29;8.23;;;3.90;;
79452;SDS011;68899;52.116;5.404;2024-01-06T03:54:56;8.35;;;4.40;;
79452;SDS011;68899;52.116;5.404;2024-01-06T03:57:23;9.25;;;4.50;;
79452;SDS011;68899;52.116;5.404;2024-01-06T03:59:49;8.32;;;4.32;;
79452;SDS011;68899;52.116;5.404;2024-01-06T04:02:15;8.38;;;3.67;;
79452;SDS011;68899;52.116;5.404;2024-01-06T04:04:42;10.00;;;4.40;;
79452;SDS011;68899;52.116;5.404;2024-01-06T04:07:08;9.05;;;4.30;;
79452;SDS011;68899;52.116;5.404;2024-01-06T04:09:35;10.63;;;5.10;;
79452;SDS011;68899;52.116;5.404;2024-01-06T04:12:01;8.48;;;4.45;;
79452;SDS011;68899;52.116;5.404;2024-01-06T04:14:28;10.20;;;4.78;;
79452;SDS011;68899;52.116;5.404;2024-01-06T04:16:54;7.93;;;4.45;;
79452;SDS011;68899;52.116;5.404;2024-01-06T04:19:23;9.50;;;4.40;;
79452;SDS011;68899;52.116;5.404;2024-01-06T04:21:50;10.23;;;4.85;;
79452;SDS011;68899;52.116;5.404;2024-01-06T04:24:17;9.77;;;4.88;;
79452;SDS011;68899;52.116;5.404;2024-01-06T04:26:44;9.45;;;4.05;;
79452;SDS011;68899;52.116;5.404;2024-01-06T04:29:12;9.88;;;4.07;;
79452;SDS011;68899;52.116;5.404;2024-01-06T04:31:40;6.72;;;3.47;;
79452;SDS011;68899;52.116;5.404;2024-01-06T04:34:07;7.68;;;3.83;;
79452;SDS011;68899;52.116;5.404;2024-01-06T04:36:34;6.30;;;3.13;;
79452;SDS011;68899;52.116;5.404;2024-01-06T04:39:00;6.40;;;3.63;;
79452;SDS011;68899;52.116;5.404;2024-01-06T04:41:27;5.95;;;3.85;;
79452;SDS011;68899;52.116;5.404;2024-01-06T04:43:53;6.15;;;3.35;;
79452;SDS011;68899;52.116;5.404;2024-01-06T04:46:20;7.10;;;3.72;;
79452;SDS011;68899;52.116;5.404;2024-01-06T04:48:47;7.75;;;3.83;;
79452;SDS011;68899;52.116;5.404;2024-01-06T04:51:13;9.13;;;4.85;;
79452;SDS011;68899;52.116;5.404;2024-01-06T04:53:40;8.20;;;3.90;;
79452;SDS011;68899;52.116;5.404;2024-01-06T04:56:06;7.38;;;4.15;;
79452;SDS011;68899;52.116;5.404;2024-01-06T04:58:33;8.38;;;4.22;;
79452;SDS011;68899;52.116;5.404;2024-01-06T05:01:00;8.68;;;4.38;;
79452;SDS011;68899;52.116;5.404;2024-01-06T05:03:28;8.18;;;4.32;;
79452;SDS011;68899;52.116;5.404;2024-01-06T05:05:55;9.10;;;4.30;;
79452;SDS011;68899;52.116;5.404;2024-01-06T05:08:22;6.53;;;3.55;;
79452;SDS011;68899;52.116;5.404;2024-01-06T05:10:49;7.55;;;4.07;;
79452;SDS011;68899;52.116;5.404;2024-01-06T05:13:15;7.78;;;3.80;;
79452;SDS011;68899;52.116;5.404;2024-01-06T05:15:44;8.15;;;4.00;;
79452;SDS011;68899;52.116;5.404;2024-01-06T05:18:10;9.60;;;4.05;;
79452;SDS011;68899;52.116;5.404;2024-01-06T05:20:37;7.80;;;3.95;;
79452;SDS011;68899;52.116;5.404;2024-01-06T05:23:03;7.03;;;3.45;;
79452;SDS011;68899;52.116;5.404;2024-01-06T05:25:30;7.13;;;3.78;;
79452;SDS011;68899;52.116;5.404;2024-01-06T05:27:56;7.72;;;3.97;;
79452;SDS011;68899;52.116;5.404;2024-01-06T05:30:23;9.60;;;4.13;;
79452;SDS011;68899;52.116;5.404;2024-01-06T05:32:49;8.45;;;4.03;;
79452;SDS011;68899;52.116;5.404;2024-01-06T05:35:16;8.20;;;4.43;;
79452;SDS011;68899;52.116;5.404;2024-01-06T05:37:43;7.22;;;4.80;;
79452;SDS011;68899;52.116;5.404;2024-01-06T05:40:09;7.45;;;4.18;;
79452;SDS011;68899;52.116;5.404;2024-01-06T05:42:36;9.48;;;4.07;;
79452;SDS011;68899;52.116;5.404;2024-01-06T05:45:02;9.70;;;4.57;;
79452;SDS011;68899;52.116;5.404;2024-01-06T05:47:29;10.02;;;4.45;;
79452;SDS011;68899;52.116;5.404;2024-01-06T05:49:56;9.70;;;4.72;;
79452;SDS011;68899;52.116;5.404;2024-01-06T05:52:24;8.93;;;4.47;;
79452;SDS011;68899;52.116;5.404;2024-01-06T05:54:50;7.85;;;4.38;;
79452;SDS011;68899;52.116;5.404;2024-01-06T05:57:17;8.25;;;4.78;;
79452;SDS011;68899;52.116;5.404;2024-01-06T05:59:44;9.23;;;5.22;;
79452;SDS011;68899;52.116;5.404;2024-01-06T06:02:11;9.52;;;5.00;;
79452;SDS011;68899;52.116;5.404;2024-01-06T06:04:37;10.90;;;5.45;;
79452;SDS011;68899;52.116;5.404;2024-01-06T06:07:04;10.98;;;4.75;;
79452;SDS011;68899;52.116;5.404;2024-01-06T06:09:30;12.73;;;5.03;;
79452;SDS011;68899;52.116;5.404;2024-01-06T06:11:57;8.77;;;4.38;;
79452;SDS011;68899;52.116;5.404;2024-01-06T06:14:23;11.15;;;4.63;;
79452;SDS011;68899;52.116;5.404;2024-01-06T06:16:55;11.73;;;5.28;;
79452;SDS011;68899;52.116;5.404;2024-01-06T06:19:21;9.02;;;4.80;;
79452;SDS011;68899;52.116;5.404;2024-01-06T06:21:48;12.07;;;5.65;;
79452;SDS011;68899;52.116;5.404;2024-01-06T06:24:14;11.00;;;5.28;;
79452;SDS011;68899;52.116;5.404;2024-01-06T06:26:41;10.98;;;5.10;;
79452;SDS011;68899;52.116;5.404;2024-01-06T06:29:07;9.90;;;5.30;;
79452;SDS011;68899;52.116;5.404;2024-01-06T06:31:34;10.10;;;5.18;;
79452;SDS011;68899;52.116;5.404;2024-01-06T06:34:02;9.32;;;5.13;;
79452;SDS011;68899;52.116;5.404;2024-01-06T06:36:34;10.93;;;5.10;;
79452;SDS011;68899;52.116;5.404;2024-01-06T06:39:00;9.68;;;4.72;;
79452;SDS011;68899;52.116;5.404;2024-01-06T06:41:27;10.80;;;4.47;;
79452;SDS011;68899;52.116;5.404;2024-01-06T06:43:53;12.30;;;5.03;;
79452;SDS011;68899;52.116;5.404;2024-01-06T06:46:19;10.88;;;5.32;;
79452;SDS011;68899;52.116;5.404;2024-01-06T06:48:46;11.45;;;4.35;;
79452;SDS011;68899;52.116;5.404;2024-01-06T06:51:12;9.98;;;4.65;;
79452;SDS011;68899;52.116;5.404;2024-01-06T06:53:39;7.93;;;4.50;;
79452;SDS011;68899;52.116;5.404;2024-01-06T06:56:06;9.77;;;4.65;;
79452;SDS011;68899;52.116;5.404;2024-01-06T06:58:33;11.43;;;4.60;;
79452;SDS011;68899;52.116;5.404;2024-01-06T07:00:59;10.05;;;4.32;;
79452;SDS011;68899;52.116;5.404;2024-01-06T07:03:27;9.27;;;3.85;;
79452;SDS011;68899;52.116;5.404;2024-01-06T07:05:53;9.10;;;4.25;;
79452;SDS011;68899;52.116;5.404;2024-01-06T07:08:20;11.40;;;4.72;;
79452;SDS011;68899;52.116;5.404;2024-01-06T07:10:46;9.57;;;4.45;;
79452;SDS011;68899;52.116;5.404;2024-01-06T07:13:13;8.18;;;4.03;;
79452;SDS011;68899;52.116;5.404;2024-01-06T07:15:39;9.23;;;4.53;;
79452;SDS011;68899;52.116;5.404;2024-01-06T07:18:06;9.75;;;3.83;;
79452;SDS011;68899;52.116;5.404;2024-01-06T07:20:32;7.80;;;3.65;;
79452;SDS011;68899;52.116;5.404;2024-01-06T07:22:59;8.32;;;3.40;;
79452;SDS011;68899;52.116;5.404;2024-01-06T07:25:25;7.97;;;3.75;;
79452;SDS011;68899;52.116;5.404;2024-01-06T07:27:52;8.98;;;3.92;;
79452;SDS011;68899;52.116;5.404;2024-01-06T07:30:21;7.25;;;3.35;;
79452;SDS011;68899;52.116;5.404;2024-01-06T07:32:48;6.40;;;3.28;;
79452;SDS011;68899;52.116;5.404;2024-01-06T07:35:17;5.97;;;3.42;;
79452;SDS011;68899;52.116;5.404;2024-01-06T07:37:44;7.50;;;3.67;;
79452;SDS011;68899;52.116;5.404;2024-01-06T07:40:10;7.13;;;3.97;;
79452;SDS011;68899;52.116;5.404;2024-01-06T07:42:39;9.15;;;3.88;;
79452;SDS011;68899;52.116;5.404;2024-01-06T07:45:05;6.63;;;3.33;;
79452;SDS011;68899;52.116;5.404;2024-01-06T07:47:32;6.40;;;3.15;;
79452;SDS011;68899;52.116;5.404;2024-01-06T07:49:59;6.03;;;3.35;;
79452;SDS011;68899;52.116;5.404;2024-01-06T07:52:26;7.72;;;3.22;;
79452;SDS011;68899;52.116;5.404;2024-01-06T07:54:52;6.15;;;3.35;;
79452;SDS011;68899;52.116;5.404;2024-01-06T07:57:19;5.85;;;3.08;;
79452;SDS011;68899;52.116;5.404;2024-01-06T07:59:45;6.80;;;3.20;;
79452;SDS011;68899;52.116;5.404;2024-01-06T08:02:12;6.03;;;3.15;;
79452;SDS011;68899;52.116;5.404;2024-01-06T08:04:38;6.60;;;3.92;;
79452;SDS011;68899;52.116;5.404;2024-01-06T08:07:05;8.00;;;4.13;;
79452;SDS011;68899;52.116;5.404;2024-01-06T08:09:31;7.32;;;4.45;;
79452;SDS011;68899;52.116;5.404;2024-01-06T08:11:58;8.85;;;4.55;;
79452;SDS011;68899;52.116;5.404;2024-01-06T08:14:25;8.00;;;3.90;;
79452;SDS011;68899;52.116;5.404;2024-01-06T08:16:51;9.23;;;4.07;;
79452;SDS011;68899;52.116;5.404;2024-01-06T08:19:18;6.78;;;3.80;;
79452;SDS011;68899;52.116;5.404;2024-01-06T08:21:44;9.10;;;4.03;;
79452;SDS011;68899;52.116;5.404;2024-01-06T08:24:11;6.75;;;4.03;;
79452;SDS011;68899;52.116;5.404;2024-01-06T08:26:37;7.03;;;4.00;;
79452;SDS011;68899;52.116;5.404;2024-01-06T08:29:04;7.47;;;3.80;;
79452;SDS011;68899;52.116;5.404;2024-01-06T08:31:30;7.95;;;3.95;;
79452;SDS011;68899;52.116;5.404;2024-01-06T08:33:57;5.90;;;3.70;;
79452;SDS011;68899;52.116;5.404;2024-01-06T08:36:24;8.73;;;4.15;;
79452;SDS011;68899;52.116;5.404;2024-01-06T08:38:51;6.30;;;4.28;;
79452;SDS011;68899;52.116;5.404;2024-01-06T08:41:17;5.88;;;3.65;;
79452;SDS011;68899;52.116;5.404;2024-01-06T08:43:44;8.95;;;3.80;;
79452;SDS011;68899;52.116;5.404;2024-01-06T08:46:10;8.30;;;4.32;;
79452;SDS011;68899;52.116;5.404;2024-01-06T08:48:37;8.10;;;3.72;;
79452;SDS011;68899;52.116;5.404;2024-01-06T08:51:04;10.52;;;4.25;;
79452;SDS011;68899;52.116;5.404;2024-01-06T08:53:31;9.18;;;3.83;;
79452;SDS011;68899;52.116;5.404;2024-01-06T08:55:58;8.98;;;4.47;;
79452;SDS011;68899;52.116;5.404;2024-01-06T08:58:24;10.38;;;4.55;;
79452;SDS011;68899;52.116;5.404;2024-01-06T09:00:51;6.82;;;3.78;;
79452;SDS011;68899;52.116;5.404;2024-01-06T09:03:19;8.50;;;4.45;;
79452;SDS011;68899;52.116;5.404;2024-01-06T09:05:53;8.27;;;3.90;;
79452;SDS011;68899;52.116;5.404;2024-01-06T09:08:25;8.57;;;4.38;;
79452;SDS011;68899;52.116;5.404;2024-01-06T09:10:51;8.05;;;4.00;;
79452;SDS011;68899;52.116;5.404;2024-01-06T09:13:22;8.52;;;4.72;;
79452;SDS011;68899;52.116;5.404;2024-01-06T09:15:50;9.55;;;4.95;;
79452;SDS011;68899;52.116;5.404;2024-01-06T09:18:19;9.13;;;4.60;;
79452;SDS011;68899;52.116;5.404;2024-01-06T09:20:46;8.95;;;4.72;;
79452;SDS011;68899;52.116;5.404;2024-01-06T09:23:15;9.02;;;4.53;;
79452;SDS011;68899;52.116;5.404;2024-01-06T09:25:42;8.55;;;3.53;;
79452;SDS011;68899;52.116;5.404;2024-01-06T09:28:08;9.30;;;4.32;;
79452;SDS011;68899;52.116;5.404;2024-01-06T09:30:37;8.80;;;4.70;;
79452;SDS011;68899;52.116;5.404;2024-01-06T09:33:03;10.80;;;5.13;;
79452;SDS011;68899;52.116;5.404;2024-01-06T09:35:30;9.15;;;3.88;;
79452;SDS011;68899;52.116;5.404;2024-01-06T09:37:57;10.57;;;4.25;;
79452;SDS011;68899;52.116;5.404;2024-01-06T09:40:23;8.00;;;4.13;;
79452;SDS011;68899;52.116;5.404;2024-01-06T09:42:51;8.48;;;4.40;;
79452;SDS011;68899;52.116;5.404;2024-01-06T09:45:18;7.80;;;4.20;;
79452;SDS011;68899;52.116;5.404;2024-01-06T09:47:46;7.38;;;4.60;;
79452;SDS011;68899;52.116;5.404;2024-01-06T09:50:19;8.98;;;4.72;;
79452;SDS011;68899;52.116;5.404;2024-01-06T09:52:47;6.65;;;3.70;;
79452;SDS011;68899;52.116;5.404;2024-01-06T09:55:23;5.85;;;3.70;;
79452;SDS011;68899;52.116;5.404;2024-01-06T09:57:52;9.15;;;3.13;;
79452;SDS011;68899;52.116;5.404;2024-01-06T10:00:20;7.70;;;3.85;;
79452;SDS011;68899;52.116;5.404;2024-01-06T10:02:50;8.82;;;3.85;;
79452;SDS011;68899;52.116;5.404;2024-01-06T10:05:17;8.25;;;3.25;;
79452;SDS011;68899;52.116;5.404;2024-01-06T10:07:44;5.90;;;3.35;;
79452;SDS011;68899;52.116;5.404;2024-01-06T10:10:11;7.00;;;3.95;;
79452;SDS011;68899;52.116;5.404;2024-01-06T10:12:39;8.30;;;3.88;;
79452;SDS011;68899;52.116;5.404;2024-01-06T10:15:07;7.78;;;3.28;;
79452;SDS011;68899;52.116;5.404;2024-01-06T10:17:38;7.30;;;3.53;;
79452;SDS011;68899;52.116;5.404;2024-01-06T10:20:09;5.45;;;3.55;;
79452;SDS011;68899;52.116;5.404;2024-01-06T10:22:37;8.07;;;3.72;;
79452;SDS011;68899;52.116;5.404;2024-01-06T10:25:05;8.73;;;4.72;;
79452;SDS011;68899;52.116;5.404;2024-01-06T10:27:35;8.75;;;4.15;;
79452;SDS011;68899;52.116;5.404;2024-01-06T10:30:05;8.27;;;3.45;;
79452;SDS011;68899;52.116;5.404;2024-01-06T10:32:33;7.35;;;4.10;;
79452;SDS011;68899;52.116;5.404;2024-01-06T10:35:00;7.80;;;3.80;;
79452;SDS011;68899;52.116;5.404;2024-01-06T10:37:28;7.88;;;3.95;;
79452;SDS011;68899;52.116;5.404;2024-01-06T10:40:10;7.45;;;4.03;;
79452;SDS011;68899;52.116;5.404;2024-01-06T10:42:46;6.95;;;3.55;;
79452;SDS011;68899;52.116;5.404;2024-01-06T10:45:13;7.50;;;4.25;;
79452;SDS011;68899;52.116;5.404;2024-01-06T10:47:41;6.95;;;4.25;;
79452;SDS011;68899;52.116;5.404;2024-01-06T10:50:09;6.50;;;4.65;;
79452;SDS011;68899;52.116;5.404;2024-01-06T10:52:39;6.22;;;3.63;;
79452;SDS011;68899;52.116;5.404;2024-01-06T10:55:06;7.35;;;3.53;;
79452;SDS011;68899;52.116;5.404;2024-01-06T10:57:33;7.30;;;3.63;;
79452;SDS011;68899;52.116;5.404;2024-01-06T11:00:00;8.63;;;4.22;;
79452;SDS011;68899;52.116;5.404;2024-01-06T11:02:27;7.57;;;3.63;;
79452;SDS011;68899;52.116;5.404;2024-01-06T11:04:54;5.88;;;3.83;;
79452;SDS011;68899;52.116;5.404;2024-01-06T11:07:21;7.78;;;4.55;;
79452;SDS011;68899;52.116;5.404;2024-01-06T11:12:31;8.20;;;4.20;;
79452;SDS011;68899;52.116;5.404;2024-01-06T11:14:59;8.43;;;4.28;;
79452;SDS011;68899;52.116;5.404;2024-01-06T11:20:25;7.18;;;3.75;;
79452;SDS011;68899;52.116;5.404;2024-01-06T11:22:53;7.50;;;4.00;;
79452;SDS011;68899;52.116;5.404;2024-01-06T11:25:20;5.82;;;3.60;;
79452;SDS011;68899;52.116;5.404;2024-01-06T11:27:49;9.35;;;4.43;;
79452;SDS011;68899;52.116;5.404;2024-01-06T11:30:22;7.47;;;4.00;;
79452;SDS011;68899;52.116;5.404;2024-01-06T11:32:55;6.63;;;4.00;;
79452;SDS011;68899;52.116;5.404;2024-01-06T11:35:25;7.38;;;3.85;;
79452;SDS011;68899;52.116;5.404;2024-01-06T11:37:54;7.18;;;3.97;;
79452;SDS011;68899;52.116;5.404;2024-01-06T11:45:29;7.65;;;3.63;;
79452;SDS011;68899;52.116;5.404;2024-01-06T11:47:57;6.53;;;3.67;;
79452;SDS011;68899;52.116;5.404;2024-01-06T11:50:25;6.75;;;3.75;;
79452;SDS011;68899;52.116;5.404;2024-01-06T11:52:53;8.07;;;3.70;;
79452;SDS011;68899;52.116;5.404;2024-01-06T11:55:21;5.78;;;3.33;;
79452;SDS011;68899;52.116;5.404;2024-01-06T11:57:48;5.95;;;3.33;;
79452;SDS011;68899;52.116;5.404;2024-01-06T12:00:16;8.18;;;3.58;;
79452;SDS011;68899;52.116;5.404;2024-01-06T12:02:44;6.97;;;4.15;;
79452;SDS011;68899;52.116;5.404;2024-01-06T12:05:15;8.60;;;3.53;;
79452;SDS011;68899;52.116;5.404;2024-01-06T12:07:54;6.85;;;3.53;;
79452;SDS011;68899;52.116;5.404;2024-01-06T12:10:23;6.18;;;3.47;;
79452;SDS011;68899;52.116;5.404;2024-01-06T12:12:57;6.90;;;3.75;;
79452;SDS011;68899;52.116;5.404;2024-01-06T12:15:25;7.25;;;3.15;;
79452;SDS011;68899;52.116;5.404;2024-01-06T12:17:56;7.85;;;3.15;;
79452;SDS011;68899;52.116;5.404;2024-01-06T12:20:24;7.15;;;3.17;;
79452;SDS011;68899;52.116;5.404;2024-01-06T12:22:52;8.18;;;3.72;;
79452;SDS011;68899;52.116;5.404;2024-01-06T12:25:22;6.82;;;3.65;;
79452;SDS011;68899;52.116;5.404;2024-01-06T12:27:49;6.75;;;3.63;;
79452;SDS011;68899;52.116;5.404;2024-01-06T12:30:18;7.15;;;4.07;;
79452;SDS011;68899;52.116;5.404;2024-01-06T12:32:46;8.40;;;3.97;;
79452;SDS011;68899;52.116;5.404;2024-01-06T12:35:15;7.60;;;4.82;;
79452;SDS011;68899;52.116;5.404;2024-01-06T12:37:42;8.88;;;3.85;;
79452;SDS011;68899;52.116;5.404;2024-01-06T12:40:14;7.43;;;4.07;;
79452;SDS011;68899;52.116;5.404;2024-01-06T12:42:43;8.13;;;4.13;;
79452;SDS011;68899;52.116;5.404;2024-01-06T12:45:11;8.98;;;4.38;;
79452;SDS011;68899;52.116;5.404;2024-01-06T12:47:37;5.88;;;3.75;;
79452;SDS011;68899;52.116;5.404;2024-01-06T12:50:04;9.13;;;4.30;;
79452;SDS011;68899;52.116;5.404;2024-01-06T12:52:32;8.43;;;4.15;;
79452;SDS011;68899;52.116;5.404;2024-01-06T12:55:00;7.80;;;4.35;;
79452;SDS011;68899;52.116;5.404;2024-01-06T12:57:26;8.10;;;4.43;;
79452;SDS011;68899;52.116;5.404;2024-01-06T12:59:53;6.57;;;3.72;;
79452;SDS011;68899;52.116;5.404;2024-01-06T13:02:20;7.00;;;3.70;;
79452;SDS011;68899;52.116;5.404;2024-01-06T13:04:47;10.40;;;4.53;;
79452;SDS011;68899;52.116;5.404;2024-01-06T13:07:14;7.65;;;4.10;;
79452;SDS011;68899;52.116;5.404;2024-01-06T13:09:40;11.13;;;5.03;;
79452;SDS011;68899;52.116;5.404;2024-01-06T13:12:07;8.02;;;4.70;;
79452;SDS011;68899;52.116;5.404;2024-01-06T13:14:34;9.02;;;4.40;;
79452;SDS011;68899;52.116;5.404;2024-01-06T13:17:02;7.75;;;3.72;;
79452;SDS011;68899;52.116;5.404;2024-01-06T13:19:28;9.90;;;4.65;;
79452;SDS011;68899;52.116;5.404;2024-01-06T13:21:55;10.23;;;4.97;;
79452;SDS011;68899;52.116;5.404;2024-01-06T13:24:22;8.32;;;4.47;;
79452;SDS011;68899;52.116;5.404;2024-01-06T13:26:49;9.07;;;5.10;;
79452;SDS011;68899;52.116;5.404;2024-01-06T13:29:16;8.65;;;5.22;;
79452;SDS011;68899;52.116;5.404;2024-01-06T13:31:44;9.38;;;5.13;;
79452;SDS011;68899;52.116;5.404;2024-01-06T13:34:10;9.60;;;4.90;;
79452;SDS011;68899;52.116;5.404;2024-01-06T13:36:37;8.63;;;5.28;;
79452;SDS011;68899;52.116;5.404;2024-01-06T13:39:04;9.55;;;4.88;;
79452;SDS011;68899;52.116;5.404;2024-01-06T13:41:31;10.15;;;5.20;;
79452;SDS011;68899;52.116;5.404;2024-01-06T13:43:58;9.70;;;5.60;;
79452;SDS011;68899;52.116;5.404;2024-01-06T13:46:24;8.25;;;5.43;;
79452;SDS011;68899;52.116;5.404;2024-01-06T13:48:51;8.82;;;5.35;;
79452;SDS011;68899;52.116;5.404;2024-01-06T13:51:18;11.80;;;5.25;;
79452;SDS011;68899;52.116;5.404;2024-01-06T13:53:44;9.27;;;5.20;;
79452;SDS011;68899;52.116;5.404;2024-01-06T13:56:11;6.95;;;4.07;;
79452;SDS011;68899;52.116;5.404;2024-01-06T13:58:37;9.77;;;5.28;;
79452;SDS011;68899;52.116;5.404;2024-01-06T14:01:04;10.77;;;5.03;;
79452;SDS011;68899;52.116;5.404;2024-01-06T14:03:31;9.73;;;5.45;;
79452;SDS011;68899;52.116;5.404;2024-01-06T14:05:59;10.52;;;5.25;;
79452;SDS011;68899;52.116;5.404;2024-01-06T14:08:26;8.38;;;4.38;;
79452;SDS011;68899;52.116;5.404;2024-01-06T14:10:52;12.13;;;5.65;;
79452;SDS011;68899;52.116;5.404;2024-01-06T14:13:19;10.55;;;5.45;;
79452;SDS011;68899;52.116;5.404;2024-01-06T14:15:45;10.93;;;5.10;;
79452;SDS011;68899;52.116;5.404;2024-01-06T14:18:12;7.75;;;4.50;;
79452;SDS011;68899;52.116;5.404;2024-01-06T14:20:41;10.43;;;5.40;;
79452;SDS011;68899;52.116;5.404;2024-01-06T14:23:08;8.05;;;4.45;;
79452;SDS011;68899;52.116;5.404;2024-01-06T14:25:36;9.38;;;4.57;;
79452;SDS011;68899;52.116;5.404;2024-01-06T14:28:03;10.20;;;5.32;;
79452;SDS011;68899;52.116;5.404;2024-01-06T14:30:32;9.80;;;5.22;;
79452;SDS011;68899;52.116;5.404;2024-01-06T14:32:58;12.25;;;4.82;;
79452;SDS011;68899;52.116;5.404;2024-01-06T14:35:25;9.52;;;4.60;;
79452;SDS011;68899;52.116;5.404;2024-01-06T14:37:51;9.45;;;4.30;;
79452;SDS011;68899;52.116;5.404;2024-01-06T14:40:19;7.68;;;4.22;;
79452;SDS011;68899;52.116;5.404;2024-01-06T14:42:46;8.27;;;4.80;;
79452;SDS011;68899;52.116;5.404;2024-01-06T14:45:12;8.23;;;5.22;;
79452;SDS011;68899;52.116;5.404;2024-01-06T14:47:40;7.72;;;3.97;;
79452;SDS011;68899;52.116;5.404;2024-01-06T14:50:07;7.80;;;3.90;;
79452;SDS011;68899;52.116;5.404;2024-01-06T14:52:33;8.30;;;4.32;;
79452;SDS011;68899;52.116;5.404;2024-01-06T14:55:00;8.05;;;4.68;;